sensor_id;sensor_type;location;lat;lon;timestamp;temperature;humidity
10306;DHT22;5198;52.382;9.020;2023-06-24T00:03:45;17.00;99.90
10306;DHT22;5198;52.382;9.020;2023-06-24T00:07:49;17.00;99.90
10306;DHT22;5198;52.382;9.020;2023-06-24T00:11:52;17.00;99.90
10306;DHT22;5198;52.382;9.020;2023-06-24T00:15:55;16.90;99.90
10306;DHT22;5198;52.382;9.020;2023-06-24T00:19:59;16.90;99.90
10306;DHT22;5198;52.382;9.020;2023-06-24T00:24:02;16.90;99.90
10306;DHT22;5198;52.382;9.020;2023-06-24T00:28:06;16.80;99.90
10306;DHT22;5198;52.382;9.020;2023-06-24T00:32:09;16.80;99.90
10306;DHT22;5198;52.382;9.020;2023-06-24T00:36:13;16.70;99.90
10306;DHT22;5198;52.382;9.020;2023-06-24T00:40:16;16.60;99.90
10306;DHT22;5198;52.382;9.020;2023-06-24T00:44:19;16.60;99.90
10306;DHT22;5198;52.382;9.020;2023-06-24T00:48:22;16.50;99.90
10306;DHT22;5198;52.382;9.020;2023-06-24T00:52:27;16.50;99.90
10306;DHT22;5198;52.382;9.020;2023-06-24T00:56:31;16.40;99.90
10306;DHT22;5198;52.382;9.020;2023-06-24T01:00:34;16.40;99.90
10306;DHT22;5198;52.382;9.020;2023-06-24T01:04:37;16.30;99.90
10306;DHT22;5198;52.382;9.020;2023-06-24T01:08:41;16.20;99.90
10306;DHT22;5198;52.382;9.020;2023-06-24T01:12:44;16.20;99.90
10306;DHT22;5198;52.382;9.020;2023-06-24T01:16:49;16.20;99.90
10306;DHT22;5198;52.382;9.020;2023-06-24T01:20:55;16.10;99.90
10306;DHT22;5198;52.382;9.020;2023-06-24T01:25:05;16.00;99.90
10306;DHT22;5198;52.382;9.020;2023-06-24T01:33:36;15.90;99.90
10306;DHT22;5198;52.382;9.020;2023-06-24T01:37:42;15.80;99.90
10306;DHT22;5198;52.382;9.020;2023-06-24T01:41:47;15.80;99.90
10306;DHT22;5198;52.382;9.020;2023-06-24T01:45:53;15.70;99.90
10306;DHT22;5198;52.382;9.020;2023-06-24T01:49:59;15.70;99.90
10306;DHT22;5198;52.382;9.020;2023-06-24T01:54:04;15.60;99.90
10306;DHT22;5198;52.382;9.020;2023-06-24T01:58:08;15.60;99.90
10306;DHT22;5198;52.382;9.020;2023-06-24T02:02:11;15.50;99.90
10306;DHT22;5198;52.382;9.020;2023-06-24T02:06:16;15.50;99.90
10306;DHT22;5198;52.382;9.020;2023-06-24T02:10:19;15.40;99.90
10306;DHT22;5198;52.382;9.020;2023-06-24T02:14:22;15.40;99.90
10306;DHT22;5198;52.382;9.020;2023-06-24T02:18:25;15.40;99.90
10306;DHT22;5198;52.382;9.020;2023-06-24T02:22:30;15.30;99.90
10306;DHT22;5198;52.382;9.020;2023-06-24T02:26:33;15.30;99.90
10306;DHT22;5198;52.382;9.020;2023-06-24T02:30:37;15.30;99.90
10306;DHT22;5198;52.382;9.020;2023-06-24T02:34:41;15.20;99.90
10306;DHT22;5198;52.382;9.020;2023-06-24T02:38:45;15.20;99.90
10306;DHT22;5198;52.382;9.020;2023-06-24T02:42:48;15.20;99.90
10306;DHT22;5198;52.382;9.020;2023-06-24T02:46:50;15.20;99.90
10306;DHT22;5198;52.382;9.020;2023-06-24T02:50:55;15.10;99.90
10306;DHT22;5198;52.382;9.020;2023-06-24T02:55:01;15.10;99.90
10306;DHT22;5198;52.382;9.020;2023-06-24T02:59:04;15.00;99.90
10306;DHT22;5198;52.382;9.020;2023-06-24T03:03:07;15.00;99.90
10306;DHT22;5198;52.382;9.020;2023-06-24T03:07:10;15.00;99.90
10306;DHT22;5198;52.382;9.020;2023-06-24T03:15:18;14.90;99.90
10306;DHT22;5198;52.382;9.020;2023-06-24T03:19:21;14.90;99.90
10306;DHT22;5198;52.382;9.020;2023-06-24T03:23:24;14.80;99.90
10306;DHT22;5198;52.382;9.020;2023-06-24T03:27:27;14.80;99.90
10306;DHT22;5198;52.382;9.020;2023-06-24T03:31:31;14.80;99.90
10306;DHT22;5198;52.382;9.020;2023-06-24T03:35:34;14.70;99.90
10306;DHT22;5198;52.382;9.020;2023-06-24T03:39:37;14.70;99.90
10306;DHT22;5198;52.382;9.020;2023-06-24T03:43:40;14.70;99.90
10306;DHT22;5198;52.382;9.020;2023-06-24T03:47:46;14.70;99.90
10306;DHT22;5198;52.382;9.020;2023-06-24T03:51:49;14.70;99.90
10306;DHT22;5198;52.382;9.020;2023-06-24T03:55:52;14.70;99.90
10306;DHT22;5198;52.382;9.020;2023-06-24T03:59:55;14.70;99.90
10306;DHT22;5198;52.382;9.020;2023-06-24T04:03:59;14.70;99.90
10306;DHT22;5198;52.382;9.020;2023-06-24T04:08:02;14.70;99.90
10306;DHT22;5198;52.382;9.020;2023-06-24T04:12:07;14.70;99.90
10306;DHT22;5198;52.382;9.020;2023-06-24T04:16:10;14.70;99.90
10306;DHT22;5198;52.382;9.020;2023-06-24T04:20:15;14.80;99.90
10306;DHT22;5198;52.382;9.020;2023-06-24T04:24:17;14.80;99.90
10306;DHT22;5198;52.382;9.020;2023-06-24T04:28:20;14.80;99.90
10306;DHT22;5198;52.382;9.020;2023-06-24T04:32:23;14.90;99.90
10306;DHT22;5198;52.382;9.020;2023-06-24T04:36:27;14.90;99.90
10306;DHT22;5198;52.382;9.020;2023-06-24T04:40:30;14.90;99.90
10306;DHT22;5198;52.382;9.020;2023-06-24T04:44:33;15.00;99.90
10306;DHT22;5198;52.382;9.020;2023-06-24T04:48:36;15.10;99.90
10306;DHT22;5198;52.382;9.020;2023-06-24T04:52:40;15.20;99.90
10306;DHT22;5198;52.382;9.020;2023-06-24T04:56:43;15.20;99.90
10306;DHT22;5198;52.382;9.020;2023-06-24T05:00:50;15.30;99.90
10306;DHT22;5198;52.382;9.020;2023-06-24T05:04:54;15.40;99.90
10306;DHT22;5198;52.382;9.020;2023-06-24T05:08:59;15.50;99.90
10306;DHT22;5198;52.382;9.020;2023-06-24T05:13:02;15.50;99.90
10306;DHT22;5198;52.382;9.020;2023-06-24T05:17:05;15.60;99.90
10306;DHT22;5198;52.382;9.020;2023-06-24T05:25:13;15.90;99.90
10306;DHT22;5198;52.382;9.020;2023-06-24T05:29:17;15.90;99.90
10306;DHT22;5198;52.382;9.020;2023-06-24T05:33:19;16.00;99.90
10306;DHT22;5198;52.382;9.020;2023-06-24T05:37:22;16.10;99.90
10306;DHT22;5198;52.382;9.020;2023-06-24T05:41:27;16.20;99.90
10306;DHT22;5198;52.382;9.020;2023-06-24T05:45:29;16.30;99.90
10306;DHT22;5198;52.382;9.020;2023-06-24T05:49:33;16.40;99.90
10306;DHT22;5198;52.382;9.020;2023-06-24T05:53:35;16.60;99.90
10306;DHT22;5198;52.382;9.020;2023-06-24T05:57:40;16.60;99.90
10306;DHT22;5198;52.382;9.020;2023-06-24T06:01:42;16.80;99.90
10306;DHT22;5198;52.382;9.020;2023-06-24T06:05:45;16.90;99.90
10306;DHT22;5198;52.382;9.020;2023-06-24T06:09:48;17.00;99.90
10306;DHT22;5198;52.382;9.020;2023-06-24T06:13:53;17.20;99.90
10306;DHT22;5198;52.382;9.020;2023-06-24T06:17:56;17.30;99.90
10306;DHT22;5198;52.382;9.020;2023-06-24T06:21:59;17.40;99.90
10306;DHT22;5198;52.382;9.020;2023-06-24T06:26:01;17.50;99.90
10306;DHT22;5198;52.382;9.020;2023-06-24T06:30:07;17.60;99.90
10306;DHT22;5198;52.382;9.020;2023-06-24T06:34:10;17.70;99.90
10306;DHT22;5198;52.382;9.020;2023-06-24T06:38:12;17.80;99.90
10306;DHT22;5198;52.382;9.020;2023-06-24T06:42:16;18.00;99.90
10306;DHT22;5198;52.382;9.020;2023-06-24T06:46:20;18.10;99.90
10306;DHT22;5198;52.382;9.020;2023-06-24T06:50:23;18.20;99.90
10306;DHT22;5198;52.382;9.020;2023-06-24T06:54:26;18.30;99.90
10306;DHT22;5198;52.382;9.020;2023-06-24T06:58:29;18.40;99.90
10306;DHT22;5198;52.382;9.020;2023-06-24T07:02:33;18.50;99.90
10306;DHT22;5198;52.382;9.020;2023-06-24T07:06:36;18.60;99.90
10306;DHT22;5198;52.382;9.020;2023-06-24T07:10:39;18.70;99.90
10306;DHT22;5198;52.382;9.020;2023-06-24T07:14:42;18.80;99.90
10306;DHT22;5198;52.382;9.020;2023-06-24T07:18:46;18.90;99.90
10306;DHT22;5198;52.382;9.020;2023-06-24T07:22:49;19.00;99.90
10306;DHT22;5198;52.382;9.020;2023-06-24T07:26:52;19.20;99.90
10306;DHT22;5198;52.382;9.020;2023-06-24T07:30:55;19.30;99.90
10306;DHT22;5198;52.382;9.020;2023-06-24T07:39:02;19.60;99.90
10306;DHT22;5198;52.382;9.020;2023-06-24T07:43:05;19.70;99.90
10306;DHT22;5198;52.382;9.020;2023-06-24T07:47:08;19.80;99.90
10306;DHT22;5198;52.382;9.020;2023-06-24T07:51:13;20.00;99.90
10306;DHT22;5198;52.382;9.020;2023-06-24T07:55:17;20.20;99.90
10306;DHT22;5198;52.382;9.020;2023-06-24T07:59:20;20.20;99.90
10306;DHT22;5198;52.382;9.020;2023-06-24T08:03:23;20.40;99.90
10306;DHT22;5198;52.382;9.020;2023-06-24T08:07:26;20.60;99.90
10306;DHT22;5198;52.382;9.020;2023-06-24T08:11:30;20.70;99.90
10306;DHT22;5198;52.382;9.020;2023-06-24T08:15:33;20.90;99.90
10306;DHT22;5198;52.382;9.020;2023-06-24T08:19:39;21.00;99.90
10306;DHT22;5198;52.382;9.020;2023-06-24T08:23:42;21.20;99.90
10306;DHT22;5198;52.382;9.020;2023-06-24T08:27:46;21.30;99.90
10306;DHT22;5198;52.382;9.020;2023-06-24T08:31:49;21.40;99.90
10306;DHT22;5198;52.382;9.020;2023-06-24T08:35:52;21.60;99.90
10306;DHT22;5198;52.382;9.020;2023-06-24T08:39:54;21.70;99.90
10306;DHT22;5198;52.382;9.020;2023-06-24T08:43:59;21.90;99.90
10306;DHT22;5198;52.382;9.020;2023-06-24T08:48:02;22.00;99.90
10306;DHT22;5198;52.382;9.020;2023-06-24T08:52:08;22.10;99.90
10306;DHT22;5198;52.382;9.020;2023-06-24T08:56:11;22.20;99.90
10306;DHT22;5198;52.382;9.020;2023-06-24T09:00:16;22.50;99.90
10306;DHT22;5198;52.382;9.020;2023-06-24T09:04:19;22.60;99.90
10306;DHT22;5198;52.382;9.020;2023-06-24T09:08:22;22.80;99.90
10306;DHT22;5198;52.382;9.020;2023-06-24T09:12:25;22.90;99.90
10306;DHT22;5198;52.382;9.020;2023-06-24T09:16:29;23.10;99.90
10306;DHT22;5198;52.382;9.020;2023-06-24T09:20:32;23.30;99.90
10306;DHT22;5198;52.382;9.020;2023-06-24T09:24:41;23.50;99.90
10306;DHT22;5198;52.382;9.020;2023-06-24T09:28:47;23.70;99.90
10306;DHT22;5198;52.382;9.020;2023-06-24T09:32:51;23.90;99.90
10306;DHT22;5198;52.382;9.020;2023-06-24T09:36:55;24.10;99.90
10306;DHT22;5198;52.382;9.020;2023-06-24T09:41:01;24.30;99.90
10306;DHT22;5198;52.382;9.020;2023-06-24T09:45:14;24.50;99.90
10306;DHT22;5198;52.382;9.020;2023-06-24T09:49:18;24.80;99.90
10306;DHT22;5198;52.382;9.020;2023-06-24T09:53:21;25.00;99.90
10306;DHT22;5198;52.382;9.020;2023-06-24T09:57:25;25.30;99.90
10306;DHT22;5198;52.382;9.020;2023-06-24T10:01:29;25.50;99.90
10306;DHT22;5198;52.382;9.020;2023-06-24T10:05:35;25.80;99.90
10306;DHT22;5198;52.382;9.020;2023-06-24T10:09:38;26.00;99.90
10306;DHT22;5198;52.382;9.020;2023-06-24T10:13:41;26.30;99.90
10306;DHT22;5198;52.382;9.020;2023-06-24T10:17:44;26.50;99.90
10306;DHT22;5198;52.382;9.020;2023-06-24T10:21:50;26.70;99.90
10306;DHT22;5198;52.382;9.020;2023-06-24T10:25:55;26.90;99.90
10306;DHT22;5198;52.382;9.020;2023-06-24T10:30:02;27.00;99.90
10306;DHT22;5198;52.382;9.020;2023-06-24T10:34:06;27.30;99.90
10306;DHT22;5198;52.382;9.020;2023-06-24T10:38:23;27.50;99.90
10306;DHT22;5198;52.382;9.020;2023-06-24T10:42:33;27.70;99.90
10306;DHT22;5198;52.382;9.020;2023-06-24T10:46:43;27.90;99.90
10306;DHT22;5198;52.382;9.020;2023-06-24T10:50:57;28.00;99.90
10306;DHT22;5198;52.382;9.020;2023-06-24T10:55:02;28.20;99.90
10306;DHT22;5198;52.382;9.020;2023-06-24T10:59:06;28.30;99.90
10306;DHT22;5198;52.382;9.020;2023-06-24T11:03:10;28.50;99.90
10306;DHT22;5198;52.382;9.020;2023-06-24T11:07:14;28.60;99.90
10306;DHT22;5198;52.382;9.020;2023-06-24T11:11:21;28.60;99.90
10306;DHT22;5198;52.382;9.020;2023-06-24T11:15:24;28.70;99.90
10306;DHT22;5198;52.382;9.020;2023-06-24T11:19:27;28.80;99.90
10306;DHT22;5198;52.382;9.020;2023-06-24T11:23:30;28.80;99.90
10306;DHT22;5198;52.382;9.020;2023-06-24T11:27:35;28.90;99.90
10306;DHT22;5198;52.382;9.020;2023-06-24T11:31:38;28.90;99.90
10306;DHT22;5198;52.382;9.020;2023-06-24T11:35:41;28.80;99.90
10306;DHT22;5198;52.382;9.020;2023-06-24T11:39:55;28.80;99.90
10306;DHT22;5198;52.382;9.020;2023-06-24T11:44:05;28.70;99.90
10306;DHT22;5198;52.382;9.020;2023-06-24T11:48:07;28.70;99.90
10306;DHT22;5198;52.382;9.020;2023-06-24T11:52:10;28.70;99.90
10306;DHT22;5198;52.382;9.020;2023-06-24T11:56:13;28.80;99.90
10306;DHT22;5198;52.382;9.020;2023-06-24T12:00:18;29.00;99.90
10306;DHT22;5198;52.382;9.020;2023-06-24T12:04:26;29.20;99.90
10306;DHT22;5198;52.382;9.020;2023-06-24T12:08:29;29.40;99.90
10306;DHT22;5198;52.382;9.020;2023-06-24T12:12:52;29.60;99.90
10306;DHT22;5198;52.382;9.020;2023-06-24T12:16:56;29.60;99.90
10306;DHT22;5198;52.382;9.020;2023-06-24T12:20:59;29.70;99.90
10306;DHT22;5198;52.382;9.020;2023-06-24T12:25:03;29.60;99.90
10306;DHT22;5198;52.382;9.020;2023-06-24T12:29:06;29.70;99.90
10306;DHT22;5198;52.382;9.020;2023-06-24T12:33:10;29.70;99.90
10306;DHT22;5198;52.382;9.020;2023-06-24T12:37:17;29.70;99.90
10306;DHT22;5198;52.382;9.020;2023-06-24T12:41:19;29.70;99.90
10306;DHT22;5198;52.382;9.020;2023-06-24T12:45:23;29.80;99.90
10306;DHT22;5198;52.382;9.020;2023-06-24T12:49:27;29.70;99.90
10306;DHT22;5198;52.382;9.020;2023-06-24T12:53:30;29.70;99.90
10306;DHT22;5198;52.382;9.020;2023-06-24T12:57:33;29.60;99.90
10306;DHT22;5198;52.382;9.020;2023-06-24T13:01:35;29.60;99.90
10306;DHT22;5198;52.382;9.020;2023-06-24T13:05:40;29.70;99.90
10306;DHT22;5198;52.382;9.020;2023-06-24T13:09:42;29.70;99.90
10306;DHT22;5198;52.382;9.020;2023-06-24T13:13:45;29.70;99.90
10306;DHT22;5198;52.382;9.020;2023-06-24T13:17:48;29.50;99.90
10306;DHT22;5198;52.382;9.020;2023-06-24T13:21:52;29.40;99.90
10306;DHT22;5198;52.382;9.020;2023-06-24T13:25:55;29.20;99.90
10306;DHT22;5198;52.382;9.020;2023-06-24T13:29:59;29.10;99.90
10306;DHT22;5198;52.382;9.020;2023-06-24T13:34:01;29.20;99.90
10306;DHT22;5198;52.382;9.020;2023-06-24T13:38:07;29.30;99.90
10306;DHT22;5198;52.382;9.020;2023-06-24T13:42:10;29.40;99.90
10306;DHT22;5198;52.382;9.020;2023-06-24T13:46:14;29.60;99.90
10306;DHT22;5198;52.382;9.020;2023-06-24T13:50:17;29.80;99.90
10306;DHT22;5198;52.382;9.020;2023-06-24T13:54:21;30.00;99.90
10306;DHT22;5198;52.382;9.020;2023-06-24T13:58:24;30.20;99.90
10306;DHT22;5198;52.382;9.020;2023-06-24T14:02:27;30.40;99.90
10306;DHT22;5198;52.382;9.020;2023-06-24T14:06:30;30.50;99.90
10306;DHT22;5198;52.382;9.020;2023-06-24T14:10:34;30.70;99.90
10306;DHT22;5198;52.382;9.020;2023-06-24T14:14:37;30.70;99.90
10306;DHT22;5198;52.382;9.020;2023-06-24T14:18:40;30.80;99.90
10306;DHT22;5198;52.382;9.020;2023-06-24T14:22:44;30.80;99.90
10306;DHT22;5198;52.382;9.020;2023-06-24T14:26:48;30.90;99.90
10306;DHT22;5198;52.382;9.020;2023-06-24T14:30:51;30.90;99.90
10306;DHT22;5198;52.382;9.020;2023-06-24T14:34:54;30.90;99.90
10306;DHT22;5198;52.382;9.020;2023-06-24T14:38:59;30.90;99.90
10306;DHT22;5198;52.382;9.020;2023-06-24T14:43:04;31.00;99.90
10306;DHT22;5198;52.382;9.020;2023-06-24T14:47:06;30.90;99.90
10306;DHT22;5198;52.382;9.020;2023-06-24T14:51:09;30.80;99.90
10306;DHT22;5198;52.382;9.020;2023-06-24T14:55:12;30.70;99.90
10306;DHT22;5198;52.382;9.020;2023-06-24T14:59:16;30.80;99.90
10306;DHT22;5198;52.382;9.020;2023-06-24T15:03:19;30.90;99.90
10306;DHT22;5198;52.382;9.020;2023-06-24T15:07:23;31.00;99.90
10306;DHT22;5198;52.382;9.020;2023-06-24T15:11:26;31.00;99.90
10306;DHT22;5198;52.382;9.020;2023-06-24T15:15:30;31.00;99.90
10306;DHT22;5198;52.382;9.020;2023-06-24T15:19:33;31.10;99.90
10306;DHT22;5198;52.382;9.020;2023-06-24T15:23:36;31.10;99.90
10306;DHT22;5198;52.382;9.020;2023-06-24T15:27:39;31.10;99.90
10306;DHT22;5198;52.382;9.020;2023-06-24T15:31:43;31.10;99.90
10306;DHT22;5198;52.382;9.020;2023-06-24T15:35:46;31.20;99.90
10306;DHT22;5198;52.382;9.020;2023-06-24T15:39:49;31.10;99.90
10306;DHT22;5198;52.382;9.020;2023-06-24T15:43:52;30.90;99.90
10306;DHT22;5198;52.382;9.020;2023-06-24T15:47:56;31.00;99.90
10306;DHT22;5198;52.382;9.020;2023-06-24T15:51:59;31.00;99.90
10306;DHT22;5198;52.382;9.020;2023-06-24T15:56:02;31.10;99.90
10306;DHT22;5198;52.382;9.020;2023-06-24T16:00:05;31.30;99.90
10306;DHT22;5198;52.382;9.020;2023-06-24T16:04:10;31.40;99.90
10306;DHT22;5198;52.382;9.020;2023-06-24T16:08:13;31.50;99.90
10306;DHT22;5198;52.382;9.020;2023-06-24T16:12:16;31.60;99.90
10306;DHT22;5198;52.382;9.020;2023-06-24T16:16:19;31.70;99.90
10306;DHT22;5198;52.382;9.020;2023-06-24T16:20:25;31.60;99.90
10306;DHT22;5198;52.382;9.020;2023-06-24T16:24:28;31.70;99.90
10306;DHT22;5198;52.382;9.020;2023-06-24T16:28:31;31.80;99.90
10306;DHT22;5198;52.382;9.020;2023-06-24T16:32:34;31.80;99.30
10306;DHT22;5198;52.382;9.020;2023-06-24T16:36:38;31.80;99.90
10306;DHT22;5198;52.382;9.020;2023-06-24T16:40:41;31.80;99.90
10306;DHT22;5198;52.382;9.020;2023-06-24T16:44:44;31.80;99.90
10306;DHT22;5198;52.382;9.020;2023-06-24T16:48:48;31.80;99.90
10306;DHT22;5198;52.382;9.020;2023-06-24T16:52:53;31.60;99.90
10306;DHT22;5198;52.382;9.020;2023-06-24T16:56:55;31.60;99.40
10306;DHT22;5198;52.382;9.020;2023-06-24T17:00:58;31.40;99.90
10306;DHT22;5198;52.382;9.020;2023-06-24T17:05:01;31.30;99.90
10306;DHT22;5198;52.382;9.020;2023-06-24T17:09:06;31.20;99.90
10306;DHT22;5198;52.382;9.020;2023-06-24T17:13:09;31.20;99.90
10306;DHT22;5198;52.382;9.020;2023-06-24T17:17:11;31.00;99.90
10306;DHT22;5198;52.382;9.020;2023-06-24T17:21:16;30.90;99.90
10306;DHT22;5198;52.382;9.020;2023-06-24T17:25:20;30.70;99.90
10306;DHT22;5198;52.382;9.020;2023-06-24T17:29:23;30.60;99.90
10306;DHT22;5198;52.382;9.020;2023-06-24T17:33:26;30.40;99.90
10306;DHT22;5198;52.382;9.020;2023-06-24T17:37:30;30.30;99.90
10306;DHT22;5198;52.382;9.020;2023-06-24T17:41:34;30.20;99.90
10306;DHT22;5198;52.382;9.020;2023-06-24T17:45:37;30.00;99.90
10306;DHT22;5198;52.382;9.020;2023-06-24T17:49:40;29.90;99.90
10306;DHT22;5198;52.382;9.020;2023-06-24T17:53:43;29.80;99.90
10306;DHT22;5198;52.382;9.020;2023-06-24T17:57:47;29.70;99.90
10306;DHT22;5198;52.382;9.020;2023-06-24T18:01:50;29.50;99.90
10306;DHT22;5198;52.382;9.020;2023-06-24T18:05:53;29.40;99.90
10306;DHT22;5198;52.382;9.020;2023-06-24T18:09:56;29.20;99.90
10306;DHT22;5198;52.382;9.020;2023-06-24T18:14:00;29.00;99.90
10306;DHT22;5198;52.382;9.020;2023-06-24T18:18:03;28.90;99.90
10306;DHT22;5198;52.382;9.020;2023-06-24T18:22:06;28.70;99.90
10306;DHT22;5198;52.382;9.020;2023-06-24T18:26:09;28.60;99.90
10306;DHT22;5198;52.382;9.020;2023-06-24T18:30:14;28.40;99.90
10306;DHT22;5198;52.382;9.020;2023-06-24T18:34:17;28.20;99.90
10306;DHT22;5198;52.382;9.020;2023-06-24T18:38:20;28.10;99.90
10306;DHT22;5198;52.382;9.020;2023-06-24T18:42:23;27.90;99.90
10306;DHT22;5198;52.382;9.020;2023-06-24T18:46:27;27.70;99.90
10306;DHT22;5198;52.382;9.020;2023-06-24T18:50:30;27.50;99.90
10306;DHT22;5198;52.382;9.020;2023-06-24T18:54:33;27.40;99.90
10306;DHT22;5198;52.382;9.020;2023-06-24T18:58:36;27.20;99.90
10306;DHT22;5198;52.382;9.020;2023-06-24T19:02:40;27.10;99.90
10306;DHT22;5198;52.382;9.020;2023-06-24T19:06:43;26.90;99.90
10306;DHT22;5198;52.382;9.020;2023-06-24T19:10:46;26.80;99.90
10306;DHT22;5198;52.382;9.020;2023-06-24T19:14:49;26.60;99.90
10306;DHT22;5198;52.382;9.020;2023-06-24T19:18:53;26.50;99.90
10306;DHT22;5198;52.382;9.020;2023-06-24T19:22:56;26.40;99.90
10306;DHT22;5198;52.382;9.020;2023-06-24T19:26:59;26.40;99.90
10306;DHT22;5198;52.382;9.020;2023-06-24T19:31:02;26.30;99.90
10306;DHT22;5198;52.382;9.020;2023-06-24T19:35:07;26.20;99.90
10306;DHT22;5198;52.382;9.020;2023-06-24T19:39:10;26.10;99.90
10306;DHT22;5198;52.382;9.020;2023-06-24T19:43:12;26.00;99.90
10306;DHT22;5198;52.382;9.020;2023-06-24T19:47:15;25.90;99.90
10306;DHT22;5198;52.382;9.020;2023-06-24T19:51:20;25.80;99.90
10306;DHT22;5198;52.382;9.020;2023-06-24T19:55:23;25.70;99.90
10306;DHT22;5198;52.382;9.020;2023-06-24T19:59:26;25.60;99.90
10306;DHT22;5198;52.382;9.020;2023-06-24T20:03:28;25.50;99.90
10306;DHT22;5198;52.382;9.020;2023-06-24T20:07:33;25.30;99.90
10306;DHT22;5198;52.382;9.020;2023-06-24T20:11:36;25.20;99.90
10306;DHT22;5198;52.382;9.020;2023-06-24T20:15:38;25.10;99.90
10306;DHT22;5198;52.382;9.020;2023-06-24T20:19:41;24.90;99.90
10306;DHT22;5198;52.382;9.020;2023-06-24T20:23:45;24.80;99.90
10306;DHT22;5198;52.382;9.020;2023-06-24T20:27:48;24.70;99.90
10306;DHT22;5198;52.382;9.020;2023-06-24T20:31:51;24.60;99.90
10306;DHT22;5198;52.382;9.020;2023-06-24T20:35:54;24.40;99.90
10306;DHT22;5198;52.382;9.020;2023-06-24T20:40:00;24.30;99.90
10306;DHT22;5198;52.382;9.020;2023-06-24T20:44:04;24.10;99.90
10306;DHT22;5198;52.382;9.020;2023-06-24T20:48:07;24.00;99.90
10306;DHT22;5198;52.382;9.020;2023-06-24T20:52:10;23.90;99.90
10306;DHT22;5198;52.382;9.020;2023-06-24T20:56:14;23.80;99.90
10306;DHT22;5198;52.382;9.020;2023-06-24T21:00:17;23.70;99.90
10306;DHT22;5198;52.382;9.020;2023-06-24T21:04:20;23.60;99.90
10306;DHT22;5198;52.382;9.020;2023-06-24T21:08:24;23.50;99.90
10306;DHT22;5198;52.382;9.020;2023-06-24T21:12:28;23.40;99.90
10306;DHT22;5198;52.382;9.020;2023-06-24T21:16:31;23.30;99.90
10306;DHT22;5198;52.382;9.020;2023-06-24T21:20:34;23.20;99.90
10306;DHT22;5198;52.382;9.020;2023-06-24T21:24:37;23.10;99.90
10306;DHT22;5198;52.382;9.020;2023-06-24T21:28:42;23.00;99.90
10306;DHT22;5198;52.382;9.020;2023-06-24T21:32:45;23.00;99.90
10306;DHT22;5198;52.382;9.020;2023-06-24T21:36:48;22.90;99.90
10306;DHT22;5198;52.382;9.020;2023-06-24T21:40:51;22.80;99.90
10306;DHT22;5198;52.382;9.020;2023-06-24T21:44:58;22.70;99.90
10306;DHT22;5198;52.382;9.020;2023-06-24T21:49:01;22.60;99.90
10306;DHT22;5198;52.382;9.020;2023-06-24T21:53:04;22.60;99.90
10306;DHT22;5198;52.382;9.020;2023-06-24T21:57:08;22.50;99.90
10306;DHT22;5198;52.382;9.020;2023-06-24T22:01:14;22.40;99.90
10306;DHT22;5198;52.382;9.020;2023-06-24T22:05:17;22.30;99.90
10306;DHT22;5198;52.382;9.020;2023-06-24T22:09:34;22.30;99.90
10306;DHT22;5198;52.382;9.020;2023-06-24T22:13:36;22.20;99.90
10306;DHT22;5198;52.382;9.020;2023-06-24T22:17:41;22.10;99.90
10306;DHT22;5198;52.382;9.020;2023-06-24T22:21:45;22.00;99.90
10306;DHT22;5198;52.382;9.020;2023-06-24T22:25:48;21.90;99.90
10306;DHT22;5198;52.382;9.020;2023-06-24T22:29:50;21.90;99.90
10306;DHT22;5198;52.382;9.020;2023-06-24T22:33:55;21.80;99.90
10306;DHT22;5198;52.382;9.020;2023-06-24T22:37:58;21.70;99.90
10306;DHT22;5198;52.382;9.020;2023-06-24T22:42:00;21.70;99.90
10306;DHT22;5198;52.382;9.020;2023-06-24T22:46:03;21.60;99.90
10306;DHT22;5198;52.382;9.020;2023-06-24T22:50:09;21.50;99.90
10306;DHT22;5198;52.382;9.020;2023-06-24T22:54:12;21.50;99.90
10306;DHT22;5198;52.382;9.020;2023-06-24T22:58:15;21.40;99.90
10306;DHT22;5198;52.382;9.020;2023-06-24T23:02:18;21.30;99.90
10306;DHT22;5198;52.382;9.020;2023-06-24T23:06:23;21.30;99.90
10306;DHT22;5198;52.382;9.020;2023-06-24T23:10:26;21.20;99.90
10306;DHT22;5198;52.382;9.020;2023-06-24T23:14:29;21.10;99.90
10306;DHT22;5198;52.382;9.020;2023-06-24T23:18:33;21.10;99.90
10306;DHT22;5198;52.382;9.020;2023-06-24T23:22:39;21.00;99.90
10306;DHT22;5198;52.382;9.020;2023-06-24T23:26:42;20.90;99.90
10306;DHT22;5198;52.382;9.020;2023-06-24T23:30:52;20.80;99.90
10306;DHT22;5198;52.382;9.020;2023-06-24T23:34:55;20.70;99.90
10306;DHT22;5198;52.382;9.020;2023-06-24T23:39:00;20.70;99.90
10306;DHT22;5198;52.382;9.020;2023-06-24T23:43:03;20.60;99.90
10306;DHT22;5198;52.382;9.020;2023-06-24T23:47:06;20.60;99.90
10306;DHT22;5198;52.382;9.020;2023-06-24T23:51:08;20.60;99.90
10306;DHT22;5198;52.382;9.020;2023-06-24T23:55:13;20.50;99.90
10306;DHT22;5198;52.382;9.020;2023-06-24T23:59:16;20.50;99.90
